createdAt,value
2023-05-20T00:01:27.989Z,14.14
2023-05-20T00:03:57.709Z,14.12
2023-05-20T00:06:26.122Z,14.10
2023-05-20T00:08:55.749Z,14.09
2023-05-20T00:11:23.795Z,14.07
2023-05-20T00:13:51.820Z,14.03
2023-05-20T00:16:19.931Z,13.99
2023-05-20T00:18:48.033Z,13.95
2023-05-20T00:21:17.500Z,13.93
2023-05-20T00:23:45.531Z,13.92
2023-05-20T00:26:13.493Z,13.91
2023-05-20T00:28:41.563Z,13.90
2023-05-20T00:31:09.657Z,13.86
2023-05-20T00:33:37.817Z,13.84
2023-05-20T00:36:06.603Z,13.79
2023-05-20T00:38:36.490Z,13.76
2023-05-20T00:41:04.679Z,13.75
2023-05-20T00:43:32.693Z,13.73
2023-05-20T00:46:02.526Z,13.70
2023-05-20T00:48:37.284Z,13.66
2023-05-20T00:51:05.664Z,13.59
2023-05-20T00:53:33.719Z,13.51
2023-05-20T00:56:03.661Z,13.43
2023-05-20T00:58:32.553Z,13.33
2023-05-20T01:01:00.684Z,13.25
2023-05-20T01:03:29.671Z,13.23
2023-05-20T01:05:57.933Z,13.24
2023-05-20T01:08:27.103Z,13.28
2023-05-20T01:11:04.898Z,13.29
2023-05-20T01:13:40.305Z,13.30
2023-05-20T01:16:10.130Z,13.36
2023-05-20T01:18:41.066Z,13.41
2023-05-20T01:21:10.575Z,13.50
2023-05-20T01:23:42.125Z,13.51
2023-05-20T01:26:13.631Z,13.55
2023-05-20T01:28:43.692Z,13.60
2023-05-20T01:31:16.949Z,13.67
2023-05-20T01:33:46.211Z,13.72
2023-05-20T01:36:14.873Z,13.75
2023-05-20T01:38:44.925Z,13.77
2023-05-20T01:41:13.965Z,13.79
2023-05-20T01:43:42.509Z,13.82
2023-05-20T01:46:10.835Z,13.84
2023-05-20T01:48:39.367Z,13.88
2023-05-20T01:51:07.621Z,13.92
2023-05-20T01:53:35.734Z,13.96
2023-05-20T01:56:06.302Z,13.99
2023-05-20T01:58:34.613Z,14.03
2023-05-20T02:01:03.809Z,14.07
2023-05-20T02:03:31.842Z,14.10
2023-05-20T02:05:59.984Z,14.11
2023-05-20T02:08:28.300Z,14.09
2023-05-20T02:10:56.292Z,14.04
2023-05-20T02:13:25.726Z,14.01
2023-05-20T02:15:53.726Z,14.01
2023-05-20T02:18:21.752Z,14.00
2023-05-20T02:20:49.724Z,14.00
2023-05-20T02:23:17.615Z,13.96
2023-05-20T02:25:46.872Z,13.93
2023-05-20T02:28:15.967Z,13.91
2023-05-20T02:30:45.364Z,13.84
2023-05-20T02:33:14.006Z,13.77
2023-05-20T02:35:42.269Z,13.66
2023-05-20T02:38:10.383Z,13.57
2023-05-20T02:40:38.556Z,13.51
2023-05-20T02:43:06.749Z,13.49
2023-05-20T02:45:34.781Z,13.50
2023-05-20T02:48:04.357Z,13.49
2023-05-20T02:50:32.508Z,13.51
2023-05-20T02:53:00.578Z,13.52
2023-05-20T02:55:29.033Z,13.51
2023-05-20T02:57:57.043Z,13.49
2023-05-20T03:00:25.315Z,13.48
2023-05-20T03:02:53.596Z,13.46
2023-05-20T03:05:23.260Z,13.44
2023-05-20T03:07:51.351Z,13.43
2023-05-20T03:10:19.306Z,13.40
2023-05-20T03:12:47.216Z,13.39
2023-05-20T03:15:15.268Z,13.37
2023-05-20T03:17:43.454Z,13.36
2023-05-20T03:20:12.877Z,13.38
2023-05-20T03:22:42.325Z,13.40
2023-05-20T03:25:11.052Z,13.41
2023-05-20T03:27:39.171Z,13.37
2023-05-20T03:30:09.673Z,13.36
2023-05-20T03:32:37.949Z,13.39
2023-05-20T03:35:06.808Z,13.42
2023-05-20T03:37:34.903Z,13.45
2023-05-20T03:40:06.251Z,13.48
2023-05-20T03:42:34.500Z,13.53
2023-05-20T03:45:02.523Z,13.50
2023-05-20T03:47:30.731Z,13.47
2023-05-20T03:49:58.708Z,13.45
2023-05-20T03:52:26.864Z,13.46
2023-05-20T03:54:55.093Z,13.48
2023-05-20T03:57:24.480Z,13.53
2023-05-20T03:59:52.577Z,13.55
2023-05-20T04:02:21.232Z,13.57
2023-05-20T04:04:52.904Z,13.59
2023-05-20T04:07:21.106Z,13.59
2023-05-20T04:09:49.165Z,13.61
2023-05-20T04:12:19.413Z,13.67
2023-05-20T04:14:50.130Z,13.70
2023-05-20T04:17:18.268Z,13.75
2023-05-20T04:19:46.337Z,13.79
2023-05-20T04:22:14.572Z,13.82
2023-05-20T04:24:42.611Z,13.85
2023-05-20T04:27:11.189Z,13.88
2023-05-20T04:29:41.578Z,13.90
2023-05-20T04:32:11.637Z,13.89
2023-05-20T04:34:39.933Z,13.87
2023-05-20T04:37:10.269Z,13.86
2023-05-20T04:39:38.803Z,13.82
2023-05-20T04:42:07.132Z,13.89
2023-05-20T04:44:35.482Z,13.96
2023-05-20T04:47:04.522Z,14.03
2023-05-20T04:49:33.953Z,14.09
2023-05-20T04:52:01.974Z,14.25
2023-05-20T04:54:30.002Z,14.50
2023-05-20T04:56:58.179Z,14.74
2023-05-20T04:59:26.331Z,14.93
2023-05-20T05:01:54.578Z,15.22
2023-05-20T05:04:23.267Z,15.55
2023-05-20T05:06:52.771Z,15.85
2023-05-20T05:09:20.730Z,16.08
2023-05-20T05:11:48.724Z,16.33
2023-05-20T05:14:16.785Z,16.54
2023-05-20T05:16:44.838Z,16.76
2023-05-20T05:19:13.663Z,16.90
2023-05-20T05:21:41.971Z,17.00
2023-05-20T05:24:11.463Z,17.07
2023-05-20T05:26:39.553Z,17.17
2023-05-20T05:29:08.815Z,17.18
2023-05-20T05:31:40.497Z,17.19
2023-05-20T05:34:08.403Z,17.28
2023-05-20T05:36:36.638Z,17.34
2023-05-20T05:39:04.871Z,17.43
2023-05-20T05:41:34.457Z,17.50
2023-05-20T05:44:02.441Z,17.64
2023-05-20T05:46:31.429Z,17.76
2023-05-20T05:48:59.602Z,17.93
2023-05-20T05:51:29.156Z,18.04
2023-05-20T05:53:57.163Z,18.16
2023-05-20T05:56:26.871Z,18.32
2023-05-20T05:58:56.432Z,18.46
2023-05-20T06:01:24.462Z,18.56
2023-05-20T06:03:52.487Z,18.61
2023-05-20T06:06:20.653Z,18.66
2023-05-20T06:08:48.755Z,18.81
2023-05-20T06:11:16.829Z,18.89
2023-05-20T06:13:45.058Z,18.95
2023-05-20T06:16:14.592Z,19.06
2023-05-20T06:18:42.629Z,19.09
2023-05-20T06:21:10.703Z,19.20
2023-05-20T06:23:38.635Z,19.35
2023-05-20T06:26:06.659Z,19.43
2023-05-20T06:28:34.713Z,19.52
2023-05-20T06:31:02.718Z,19.64
2023-05-20T06:33:32.232Z,19.81
2023-05-20T06:36:01.785Z,19.90
2023-05-20T06:38:30.123Z,20.04
2023-05-20T06:40:58.406Z,20.18
2023-05-20T06:43:26.557Z,20.21
2023-05-20T06:45:54.853Z,20.29
2023-05-20T06:48:23.037Z,20.31
2023-05-20T06:50:52.511Z,20.36
2023-05-20T06:53:20.643Z,20.49
2023-05-20T06:55:48.792Z,20.65
2023-05-20T07:00:44.553Z,20.94
2023-05-20T07:03:12.730Z,21.03
2023-05-20T07:05:40.732Z,21.15
2023-05-20T07:08:10.328Z,21.27
2023-05-20T07:10:38.576Z,21.38
2023-05-20T07:13:06.741Z,21.38
2023-05-20T07:15:34.944Z,21.45
2023-05-20T07:18:03.264Z,21.53
2023-05-20T07:20:31.382Z,21.53
2023-05-20T07:22:59.630Z,21.58
2023-05-20T07:25:29.320Z,21.66
2023-05-20T07:27:57.349Z,21.67
2023-05-20T07:30:25.474Z,21.66
2023-05-20T07:32:53.485Z,21.78
2023-05-20T07:35:21.472Z,21.92
2023-05-20T07:37:49.577Z,22.01
2023-05-20T07:40:17.769Z,22.16
2023-05-20T07:42:47.198Z,22.29
2023-05-20T07:45:15.176Z,22.38
2023-05-20T07:47:43.354Z,22.39
2023-05-20T07:50:12.062Z,22.27
2023-05-20T07:52:55.127Z,22.30
2023-05-20T07:55:23.784Z,22.34
2023-05-20T07:57:53.075Z,22.31
2023-05-20T08:00:21.492Z,22.44
2023-05-20T08:02:49.838Z,22.42
2023-05-20T08:05:18.370Z,22.36
2023-05-20T08:07:46.665Z,22.35
2023-05-20T08:10:14.724Z,22.49
2023-05-20T08:12:42.631Z,22.67
2023-05-20T08:15:12.866Z,22.80
2023-05-20T08:17:40.885Z,22.95
2023-05-20T08:20:10.991Z,22.87
2023-05-20T08:22:39.059Z,22.88
2023-05-20T08:25:11.060Z,22.85
2023-05-20T08:27:39.138Z,22.96
2023-05-20T08:30:09.893Z,22.99
2023-05-20T08:32:39.520Z,23.12
2023-05-20T08:35:08.770Z,23.22
2023-05-20T08:37:36.829Z,23.34
2023-05-20T08:40:06.558Z,23.37
2023-05-20T08:42:34.861Z,23.50
2023-05-20T08:45:04.241Z,23.63
2023-05-20T08:47:33.029Z,23.68
2023-05-20T08:50:03.003Z,23.82
2023-05-20T08:52:35.556Z,23.91
2023-05-20T08:55:04.021Z,23.96
2023-05-20T08:57:34.010Z,24.01
2023-05-20T09:00:02.067Z,24.06
2023-05-20T09:02:30.060Z,24.11
2023-05-20T09:04:58.199Z,24.22
2023-05-20T09:07:30.747Z,24.22
2023-05-20T09:09:59.000Z,24.20
2023-05-20T09:12:27.056Z,24.30
2023-05-20T09:14:55.229Z,24.34
2023-05-20T09:17:23.290Z,24.47
2023-05-20T09:19:51.791Z,24.46
2023-05-20T09:22:24.088Z,24.48
2023-05-20T09:24:54.278Z,24.59
2023-05-20T09:27:24.126Z,24.77
2023-05-20T09:29:52.787Z,24.85
2023-05-20T09:32:24.214Z,24.84
2023-05-20T09:34:52.393Z,24.90
2023-05-20T09:37:23.012Z,24.91
2023-05-20T09:40:00.183Z,25.10
2023-05-20T09:42:33.028Z,25.23
2023-05-20T09:45:04.351Z,25.30
2023-05-20T09:47:33.079Z,25.37
2023-05-20T09:50:04.766Z,25.36
2023-05-20T09:52:32.770Z,25.37
2023-05-20T09:55:05.857Z,25.38
2023-05-20T09:57:35.458Z,25.46
2023-05-20T10:00:05.068Z,25.49
2023-05-20T10:02:34.464Z,25.54
2023-05-20T10:05:10.111Z,25.68
2023-05-20T10:08:21.885Z,25.73
2023-05-20T10:10:56.574Z,25.84
2023-05-20T10:13:46.321Z,25.84
2023-05-20T10:16:30.244Z,25.87
2023-05-20T10:19:06.735Z,25.89
2023-05-20T10:21:34.961Z,25.97
2023-05-20T10:24:09.949Z,25.88
2023-05-20T10:26:40.104Z,26.02
2023-05-20T10:29:17.089Z,26.04
2023-05-20T10:31:52.013Z,26.02
2023-05-20T10:34:21.644Z,26.06
2023-05-20T10:37:00.000Z,26.16
2023-05-20T10:39:29.578Z,26.23
2023-05-20T10:42:09.589Z,26.19
2023-05-20T10:44:44.575Z,26.39
2023-05-20T10:49:46.519Z,26.43
2023-05-20T10:52:14.955Z,26.58
2023-05-20T10:54:50.016Z,26.82
2023-05-20T10:57:21.356Z,26.85
2023-05-20T10:59:51.273Z,26.88
2023-05-20T11:02:19.862Z,26.91
2023-05-20T11:04:48.723Z,26.90
2023-05-20T11:07:26.682Z,26.88
2023-05-20T11:09:54.655Z,27.00
2023-05-20T11:12:25.232Z,27.01
2023-05-20T11:14:53.642Z,27.08
2023-05-20T11:17:22.067Z,27.05
2023-05-20T11:19:50.372Z,27.19
2023-05-20T11:22:18.471Z,27.18
2023-05-20T11:24:48.501Z,27.31
2023-05-20T11:27:16.618Z,27.39
2023-05-20T11:29:46.379Z,27.26
2023-05-20T11:32:14.417Z,27.35
2023-05-20T11:34:42.712Z,27.41
2023-05-20T11:37:12.218Z,27.35
2023-05-20T11:39:40.401Z,27.33
2023-05-20T11:42:08.654Z,27.49
2023-05-20T11:44:36.888Z,27.60
2023-05-20T11:47:06.700Z,27.58
2023-05-20T11:49:41.490Z,27.61
2023-05-20T11:52:11.140Z,27.64
2023-05-20T11:54:39.413Z,27.80
2023-05-20T11:57:07.682Z,28.12
2023-05-20T11:59:36.665Z,28.52
2023-05-20T12:02:06.178Z,28.92
2023-05-20T12:04:34.318Z,29.23
2023-05-20T12:07:04.103Z,29.36
2023-05-20T12:09:32.226Z,29.52
2023-05-20T12:12:00.349Z,29.92
2023-05-20T12:14:28.590Z,29.92
2023-05-20T12:16:56.887Z,29.83
2023-05-20T12:19:26.331Z,29.56
2023-05-20T12:21:54.467Z,29.21
2023-05-20T12:24:22.572Z,28.60
2023-05-20T12:26:50.867Z,28.01
2023-05-20T12:29:18.952Z,27.44
2023-05-20T12:31:46.993Z,26.88
2023-05-20T12:34:15.036Z,26.36
2023-05-20T12:36:44.459Z,25.85
2023-05-20T12:39:13.770Z,25.36
2023-05-20T12:41:42.397Z,24.70
2023-05-20T12:44:10.401Z,23.96
2023-05-20T12:46:39.054Z,23.19
2023-05-20T12:49:07.948Z,22.63
2023-05-20T12:51:35.956Z,22.17
2023-05-20T12:54:05.489Z,21.60
2023-05-20T12:56:33.583Z,21.08
2023-05-20T12:59:02.136Z,20.70
2023-05-20T13:01:30.435Z,20.45
2023-05-20T13:03:58.493Z,20.28
2023-05-20T13:06:26.532Z,20.15
2023-05-20T13:08:54.465Z,19.63
2023-05-20T13:11:24.610Z,19.23
2023-05-20T13:13:52.667Z,19.02
2023-05-20T13:16:20.813Z,19.14
2023-05-20T13:18:48.993Z,19.18
2023-05-20T13:21:17.056Z,19.11
2023-05-20T13:23:45.146Z,19.28
2023-05-20T13:26:13.565Z,19.68
2023-05-20T13:28:42.912Z,20.07
2023-05-20T13:31:11.073Z,20.72
2023-05-20T13:33:39.073Z,21.57
2023-05-20T13:36:07.625Z,22.19
2023-05-20T13:38:37.226Z,22.68
2023-05-20T13:41:05.696Z,23.73
2023-05-20T13:43:33.892Z,26.62
2023-05-20T13:46:03.568Z,28.84
2023-05-20T13:48:33.135Z,30.77
2023-05-20T13:51:01.882Z,30.85
2023-05-20T13:53:30.025Z,30.34
2023-05-20T13:55:58.249Z,29.62
2023-05-20T13:58:26.227Z,29.13
2023-05-20T14:00:54.555Z,28.79
2023-05-20T14:03:24.077Z,28.49
2023-05-20T14:05:52.230Z,28.15
2023-05-20T14:08:20.149Z,27.77
2023-05-20T14:10:48.428Z,27.50
2023-05-20T14:13:16.663Z,27.23
2023-05-20T14:15:44.720Z,27.19
2023-05-20T14:18:12.748Z,27.17
2023-05-20T14:20:42.105Z,27.09
2023-05-20T14:23:10.280Z,26.76
2023-05-20T14:25:38.275Z,26.35
2023-05-20T14:28:06.920Z,25.99
2023-05-20T14:30:35.192Z,25.70
2023-05-20T14:33:03.441Z,25.54
2023-05-20T14:35:31.577Z,25.19
2023-05-20T14:38:01.212Z,24.81
2023-05-20T14:40:29.276Z,24.56
2023-05-20T14:42:57.293Z,24.36
2023-05-20T14:45:25.392Z,24.22
2023-05-20T14:47:53.619Z,24.32
2023-05-20T14:50:21.701Z,24.82
2023-05-20T14:52:50.611Z,26.16
2023-05-20T14:55:20.041Z,26.76
2023-05-20T14:57:48.440Z,26.79
2023-05-20T15:00:20.147Z,27.06
2023-05-20T15:02:48.273Z,27.59
2023-05-20T15:05:18.026Z,28.27
2023-05-20T15:07:46.869Z,29.25
2023-05-20T15:10:15.063Z,29.44
2023-05-20T15:12:44.498Z,29.62
2023-05-20T15:15:12.803Z,30.43
2023-05-20T15:17:40.985Z,31.49
2023-05-20T15:20:10.485Z,31.96
2023-05-20T15:22:38.917Z,32.63
2023-05-20T15:25:07.472Z,33.46
2023-05-20T15:27:35.429Z,33.49
2023-05-20T15:30:05.455Z,32.84
2023-05-20T15:32:33.621Z,32.48
2023-05-20T15:35:02.927Z,32.19
2023-05-20T15:37:31.248Z,31.73
2023-05-20T15:39:59.313Z,31.23
2023-05-20T15:42:27.443Z,30.71
2023-05-20T15:44:55.903Z,30.14
2023-05-20T15:47:25.342Z,29.63
2023-05-20T15:49:54.449Z,29.17
2023-05-20T15:52:22.526Z,28.71
2023-05-20T15:54:50.693Z,28.30
2023-05-20T15:57:18.772Z,27.96
2023-05-20T15:59:46.852Z,27.62
2023-05-20T16:02:15.213Z,27.28
2023-05-20T16:04:44.894Z,27.09
2023-05-20T16:07:12.917Z,27.53
2023-05-20T16:09:41.001Z,27.98
2023-05-20T16:12:09.185Z,28.28
2023-05-20T16:14:37.296Z,28.92
2023-05-20T16:17:05.685Z,30.27
2023-05-20T16:19:33.894Z,31.50
2023-05-20T16:22:03.259Z,32.39
2023-05-20T16:24:31.497Z,33.29
2023-05-20T16:26:59.462Z,34.11
2023-05-20T16:29:27.475Z,34.83
2023-05-20T16:31:55.663Z,35.37
2023-05-20T16:34:23.920Z,35.80
2023-05-20T16:36:51.982Z,36.10
2023-05-20T16:39:21.375Z,36.43
2023-05-20T16:41:49.416Z,36.67
2023-05-20T16:44:17.592Z,36.71
2023-05-20T16:46:45.639Z,36.61
2023-05-20T16:49:13.737Z,36.53
2023-05-20T16:51:41.852Z,36.26
2023-05-20T16:54:09.892Z,35.74
2023-05-20T16:56:39.415Z,35.02
2023-05-20T16:59:07.431Z,34.22
2023-05-20T17:01:36.959Z,33.46
2023-05-20T17:04:05.428Z,32.97
2023-05-20T17:06:34.302Z,32.62
2023-05-20T17:09:04.330Z,32.22
2023-05-20T17:11:32.370Z,31.62
2023-05-20T17:14:01.921Z,31.17
2023-05-20T17:16:30.196Z,30.58
2023-05-20T17:18:58.868Z,29.99
2023-05-20T17:21:26.946Z,29.35
2023-05-20T17:23:54.977Z,28.59
2023-05-20T17:26:23.497Z,27.64
2023-05-20T17:28:51.540Z,26.75
2023-05-20T17:31:21.904Z,26.01
2023-05-20T17:33:50.008Z,25.43
2023-05-20T17:36:18.130Z,24.98
2023-05-20T17:38:46.276Z,24.52
2023-05-20T17:41:14.791Z,24.05
2023-05-20T17:43:42.874Z,23.63
2023-05-20T17:46:10.899Z,23.20
2023-05-20T17:48:40.698Z,22.80
2023-05-20T17:51:08.716Z,22.44
2023-05-20T17:53:36.767Z,22.07
2023-05-20T17:56:05.371Z,21.75
2023-05-20T17:58:33.841Z,21.44
2023-05-20T18:01:02.293Z,21.19
2023-05-20T18:03:30.383Z,20.96
2023-05-20T18:05:59.867Z,20.71
2023-05-20T18:08:28.050Z,20.47
2023-05-20T18:10:56.098Z,20.31
2023-05-20T18:13:24.202Z,20.14
2023-05-20T18:15:52.562Z,19.92
2023-05-20T18:18:20.717Z,19.76
2023-05-20T18:20:48.736Z,19.68
2023-05-20T18:23:18.223Z,19.66
2023-05-20T18:25:46.310Z,19.60
2023-05-20T18:28:14.359Z,19.50
2023-05-20T18:30:42.470Z,19.43
2023-05-20T18:33:10.933Z,19.38
2023-05-20T18:35:39.327Z,19.32
2023-05-20T18:38:07.657Z,19.20
2023-05-20T18:40:37.349Z,19.10
2023-05-20T18:43:05.617Z,19.02
2023-05-20T18:45:33.827Z,18.97
2023-05-20T18:48:02.251Z,18.90
2023-05-20T18:50:30.600Z,18.85
2023-05-20T18:52:58.600Z,18.81
2023-05-20T18:55:26.649Z,18.73
2023-05-20T18:57:56.267Z,18.65
2023-05-20T19:00:24.415Z,18.59
2023-05-20T19:02:52.683Z,18.58
2023-05-20T19:05:21.040Z,18.61
2023-05-20T19:07:49.083Z,18.65
2023-05-20T19:10:17.061Z,18.66
2023-05-20T19:12:45.134Z,18.61
2023-05-20T19:15:15.832Z,18.58
2023-05-20T19:17:43.855Z,18.57
2023-05-20T19:20:13.975Z,18.56
2023-05-20T19:22:42.027Z,18.57
2023-05-20T19:25:10.976Z,18.62
2023-05-20T19:27:39.092Z,18.75
2023-05-20T19:30:10.685Z,18.89
2023-05-20T19:32:40.501Z,19.12
2023-05-20T19:35:09.298Z,19.30
2023-05-20T19:37:37.272Z,19.39
2023-05-20T19:40:06.826Z,19.42
2023-05-20T19:42:34.848Z,19.47
2023-05-20T19:45:03.000Z,19.48
2023-05-20T19:47:31.311Z,19.57
2023-05-20T19:50:01.428Z,19.64
2023-05-20T19:52:29.600Z,19.63
2023-05-20T19:54:57.662Z,19.58
2023-05-20T19:57:25.912Z,19.52
2023-05-20T19:59:54.222Z,19.55
2023-05-20T20:02:22.230Z,19.50
2023-05-20T20:04:51.853Z,19.46
2023-05-20T20:07:21.693Z,19.42
2023-05-20T20:09:51.703Z,19.50
2023-05-20T20:12:19.750Z,19.50
2023-05-20T20:14:48.207Z,19.49
2023-05-20T20:17:17.323Z,19.47
2023-05-20T20:19:46.397Z,19.45
2023-05-20T20:22:14.770Z,19.42
2023-05-20T20:24:44.200Z,19.36
2023-05-20T20:27:13.323Z,19.37
2023-05-20T20:29:42.092Z,19.39
2023-05-20T20:32:10.316Z,19.41
2023-05-20T20:34:38.510Z,19.38
2023-05-20T20:37:06.877Z,19.34
2023-05-20T20:39:37.169Z,19.26
2023-05-20T20:42:07.051Z,19.17
2023-05-20T20:44:35.209Z,19.08
2023-05-20T20:47:04.262Z,18.96
2023-05-20T20:49:33.057Z,18.81
2023-05-20T20:52:01.175Z,18.69
2023-05-20T20:54:29.184Z,18.59
2023-05-20T20:56:57.507Z,18.45
2023-05-20T20:59:27.245Z,18.32
2023-05-20T21:01:55.576Z,18.19
2023-05-20T21:04:23.640Z,18.07
2023-05-20T21:06:52.286Z,17.97
2023-05-20T21:09:20.327Z,17.90
2023-05-20T21:11:49.354Z,17.82
2023-05-20T21:14:17.570Z,17.71
2023-05-20T21:16:46.944Z,17.54
2023-05-20T21:19:15.093Z,17.47
2023-05-20T21:21:43.219Z,17.42
2023-05-20T21:24:11.228Z,17.39
2023-05-20T21:26:39.266Z,17.41
2023-05-20T21:29:07.519Z,17.41
2023-05-20T21:31:35.569Z,17.42
2023-05-20T21:34:05.428Z,17.44
2023-05-20T21:36:33.500Z,17.45
2023-05-20T21:39:01.711Z,17.45
2023-05-20T21:41:29.739Z,17.45
2023-05-20T21:43:57.737Z,17.40
2023-05-20T21:46:25.880Z,17.36
2023-05-20T21:48:54.061Z,17.35
2023-05-20T21:51:23.421Z,17.32
2023-05-20T21:53:51.481Z,17.34
2023-05-20T21:56:19.603Z,17.36
2023-05-20T21:58:47.564Z,17.36
2023-05-20T22:01:15.596Z,17.38
2023-05-20T22:03:48.761Z,17.39
2023-05-20T22:06:18.164Z,17.42
2023-05-20T22:08:47.787Z,17.45
2023-05-20T22:11:15.865Z,17.44
2023-05-20T22:13:44.367Z,17.42
2023-05-20T22:16:12.551Z,17.42
2023-05-20T22:18:40.617Z,17.45
2023-05-20T22:21:08.722Z,17.43
2023-05-20T22:23:36.764Z,17.37
2023-05-20T22:26:06.496Z,17.31
2023-05-20T22:28:34.615Z,17.30
2023-05-20T22:31:03.553Z,17.27
2023-05-20T22:33:31.862Z,17.25
2023-05-20T22:35:59.782Z,17.27
2023-05-20T22:38:29.760Z,17.31
2023-05-20T22:40:57.808Z,17.34
2023-05-20T22:43:27.282Z,17.36
2023-05-20T22:45:55.503Z,17.35
2023-05-20T22:48:23.486Z,17.30
2023-05-20T22:50:51.795Z,17.22
2023-05-20T22:53:19.806Z,17.13
2023-05-20T22:55:47.976Z,17.02
2023-05-20T22:58:16.349Z,16.95
2023-05-20T23:00:46.199Z,16.90
2023-05-20T23:03:14.431Z,16.87
2023-05-20T23:05:42.443Z,16.82
2023-05-20T23:08:10.630Z,16.76
2023-05-20T23:10:38.931Z,16.70
2023-05-20T23:13:07.014Z,16.64
2023-05-20T23:15:35.367Z,16.56
2023-05-20T23:18:05.223Z,16.47
2023-05-20T23:20:33.357Z,16.36
2023-05-20T23:23:08.251Z,16.27
2023-05-20T23:25:39.226Z,16.18
2023-05-20T23:28:07.493Z,16.10
2023-05-20T23:30:36.046Z,16.04
2023-05-20T23:33:05.649Z,15.98
2023-05-20T23:35:34.018Z,15.91
2023-05-20T23:38:02.249Z,15.81
2023-05-20T23:40:30.203Z,15.71
2023-05-20T23:42:58.246Z,15.64
2023-05-20T23:45:26.278Z,15.58
2023-05-20T23:47:55.577Z,15.55
2023-05-20T23:50:25.120Z,15.52
2023-05-20T23:52:53.061Z,15.50
2023-05-20T23:55:21.344Z,15.46
2023-05-20T23:57:49.852Z,15.45
